Time;durP1;ratioP1;P1;durP2;ratioP2;P2;SDS_P1;SDS_P2;PMS_P1;PMS_P2;Temp;Humidity;BMP_temperature;BMP_pressure;BME280_temperature;BME280_humidity;BME280_pressure;Samples;Min_cycle;Max_cycle;Signal;HPM_P1;HPM_P2
2023/01/02 00:00:37;;;;;;;18.40;4.88;;;;;;;;;;5014867;28;20061;-72
2023/01/02 00:03:02;;;;;;;9.23;2.70;;;;;;;;;;5047124;28;20482;-72
2023/01/02 00:05:28;;;;;;;12.95;1.92;;;;;;;;;;5015095;28;20478;-73
2023/01/02 00:07:54;;;;;;;14.32;2.17;;;;;;;;;;5014971;28;20044;-72
2023/01/02 00:10:19;;;;;;;11.20;2.25;;;;;;;;;;5013660;28;20046;-72
2023/01/02 00:12:44;;;;;;;14.80;1.90;;;;;;;;;;5014915;28;20052;-72
2023/01/02 00:15:10;;;;;;;17.13;2.08;;;;;;;;;;5015081;28;20045;-72
2023/01/02 00:17:35;;;;;;;14.40;1.77;;;;;;;;;;5013164;28;20037;-73
2023/01/02 00:20:01;;;;;;;8.13;1.73;;;;;;;;;;5010399;28;20042;-72
2023/01/02 00:22:26;;;;;;;6.25;1.73;;;;;;;;;;4996992;28;20125;-72
2023/01/02 00:24:51;;;;;;;12.13;2.00;;;;;;;;;;5009933;28;20386;-73
2023/01/02 00:27:17;;;;;;;4.43;1.63;;;;;;;;;;5007916;28;20046;-75
2023/01/02 00:29:42;;;;;;;6.05;1.73;;;;;;;;;;5013091;28;20026;-72
2023/01/02 00:32:08;;;;;;;12.25;1.98;;;;;;;;;;5010950;28;20161;-72
2023/01/02 00:34:33;;;;;;;10.25;2.30;;;;;;;;;;5013635;28;20046;-74
2023/01/02 00:36:58;;;;;;;5.70;1.33;;;;;;;;;;5007735;28;20076;-73
2023/01/02 00:39:24;;;;;;;7.80;2.10;;;;;;;;;;5014138;28;20401;-72
2023/01/02 00:41:49;;;;;;;11.40;2.28;;;;;;;;;;5011707;28;20132;-73
2023/01/02 00:44:15;;;;;;;12.90;2.20;;;;;;;;;;5012474;28;20040;-73
2023/01/02 00:46:40;;;;;;;9.93;1.90;;;;;;;;;;5010467;28;20084;-72
2023/01/02 00:49:05;;;;;;;10.25;2.67;;;;;;;;;;5015103;28;20058;-72
2023/01/02 00:51:31;;;;;;;15.98;2.40;;;;;;;;;;5010756;28;20029;-72
2023/01/02 00:53:56;;;;;;;16.02;1.90;;;;;;;;;;5012175;28;20117;-72
2023/01/02 00:56:22;;;;;;;11.90;2.45;;;;;;;;;;5012205;28;20470;-72
2023/01/02 00:58:47;;;;;;;12.38;1.88;;;;;;;;;;5013669;28;20052;-73
2023/01/02 01:01:12;;;;;;;16.88;2.20;;;;;;;;;;5010209;28;20074;-72
2023/01/02 01:03:38;;;;;;;13.18;1.95;;;;;;;;;;5012913;28;20490;-72
2023/01/02 01:06:08;;;;;;;8.20;2.45;;;;;;;;;;5008811;28;20026;-73
2023/01/02 01:08:35;;;;;;;10.02;1.98;;;;;;;;;;5017016;28;20068;-73
2023/01/02 01:11:08;;;;;;;9.40;2.67;;;;;;;;;;5013774;28;20069;-73
2023/01/02 01:13:33;;;;;;;11.63;2.33;;;;;;;;;;5045784;28;20497;-73
2023/01/02 01:16:07;;;;;;;6.65;1.77;;;;;;;;;;5034857;28;20033;-72
2023/01/02 01:18:33;;;;;;;10.55;2.05;;;;;;;;;;5012059;28;20044;-72
2023/01/02 01:20:58;;;;;;;18.50;1.80;;;;;;;;;;5027593;28;20041;-73
2023/01/02 01:23:23;;;;;;;14.27;1.80;;;;;;;;;;5017647;28;20065;-72
2023/01/02 01:25:49;;;;;;;16.33;2.03;;;;;;;;;;5018331;28;20042;-74
2023/01/02 01:28:14;;;;;;;13.00;1.85;;;;;;;;;;5021548;28;20045;-72
2023/01/02 01:30:40;;;;;;;22.27;4.70;;;;;;;;;;5021235;28;20025;-72
2023/01/02 01:33:05;;;;;;;13.30;2.20;;;;;;;;;;5017087;28;20052;-72
2023/01/02 01:35:32;;;;;;;14.05;2.38;;;;;;;;;;5018874;28;20484;-73
2023/01/02 01:37:58;;;;;;;11.13;2.63;;;;;;;;;;5017723;28;20033;-72
2023/01/02 01:40:23;;;;;;;9.73;2.00;;;;;;;;;;5026399;28;20068;-72
2023/01/02 01:42:49;;;;;;;16.75;2.03;;;;;;;;;;5026940;28;20034;-73
2023/01/02 01:45:15;;;;;;;11.55;2.20;;;;;;;;;;5023205;28;20461;-72
2023/01/02 01:47:52;;;;;;;16.30;1.90;;;;;;;;;;5010302;28;20060;-72
2023/01/02 01:50:24;;;;;;;12.57;2.42;;;;;;;;;;5015868;28;20313;-73
2023/01/02 01:52:54;;;;;;;13.68;1.67;;;;;;;;;;4996491;28;20038;-73
2023/01/02 01:55:25;;;;;;;13.02;2.33;;;;;;;;;;5024331;28;20030;-73
2023/01/02 01:57:57;;;;;;;11.63;1.70;;;;;;;;;;4997582;28;20038;-72
2023/01/02 02:00:23;;;;;;;13.52;3.20;;;;;;;;;;5012031;28;20076;-74
2023/01/02 02:02:51;;;;;;;14.27;1.90;;;;;;;;;;5019114;28;20080;-72
2023/01/02 02:05:19;;;;;;;11.40;2.08;;;;;;;;;;5013510;28;20038;-72
2023/01/02 02:07:50;;;;;;;13.45;2.30;;;;;;;;;;5044570;28;20489;-72
2023/01/02 02:10:15;;;;;;;20.65;3.20;;;;;;;;;;5020558;28;20053;-73
2023/01/02 02:12:40;;;;;;;17.70;2.35;;;;;;;;;;5019492;28;20041;-72
2023/01/02 02:15:09;;;;;;;17.73;2.10;;;;;;;;;;5021659;28;20037;-73
2023/01/02 02:17:46;;;;;;;13.18;2.72;;;;;;;;;;5005768;28;20454;-72
2023/01/02 02:20:16;;;;;;;20.23;2.53;;;;;;;;;;5017197;28;20037;-73
2023/01/02 02:22:50;;;;;;;11.23;1.88;;;;;;;;;;5023072;28;20044;-72
2023/01/02 02:25:19;;;;;;;12.32;2.20;;;;;;;;;;5046298;28;20045;-72
2023/01/02 02:28:29;;;;;;;7.68;1.63;;;;;;;;;;5013955;28;20045;-72
2023/01/02 02:30:57;;;;;;;16.65;2.15;;;;;;;;;;5009489;28;20046;-72
2023/01/02 02:33:35;;;;;;;15.23;1.90;;;;;;;;;;5047646;28;20119;-73
2023/01/02 02:36:11;;;;;;;17.27;2.90;;;;;;;;;;5015266;28;20038;-72
2023/01/02 02:38:40;;;;;;;7.00;1.70;;;;;;;;;;5011364;28;20045;-72
2023/01/02 02:41:37;;;;;;;8.65;2.13;;;;;;;;;;5015812;28;20042;-72
2023/01/02 02:44:21;;;;;;;15.80;1.75;;;;;;;;;;5009387;28;20042;-73
2023/01/02 02:46:52;;;;;;;10.85;1.73;;;;;;;;;;5012324;28;20052;-72
2023/01/02 02:49:29;;;;;;;13.20;1.83;;;;;;;;;;5018022;28;20066;-72
2023/01/02 02:52:02;;;;;;;11.80;1.75;;;;;;;;;;5013093;28;20038;-72
2023/01/02 02:54:48;;;;;;;13.45;1.38;;;;;;;;;;5012260;28;20112;-74
2023/01/02 02:57:14;;;;;;;13.13;1.98;;;;;;;;;;5000827;28;20042;-72
2023/01/02 02:59:40;;;;;;;6.72;1.40;;;;;;;;;;5019674;28;20136;-74
2023/01/02 03:02:06;;;;;;;15.65;2.33;;;;;;;;;;5048538;28;20034;-72
2023/01/02 03:04:32;;;;;;;17.02;2.33;;;;;;;;;;5018397;28;20113;-72
2023/01/02 03:07:19;;;;;;;10.50;2.10;;;;;;;;;;5015582;28;20044;-73
2023/01/02 03:09:56;;;;;;;19.35;3.13;;;;;;;;;;5018643;28;20044;-72
2023/01/02 03:12:42;;;;;;;11.35;1.80;;;;;;;;;;5048381;28;20073;-72
2023/01/02 03:15:13;;;;;;;15.00;1.55;;;;;;;;;;5017044;28;20041;-73
2023/01/02 03:17:58;;;;;;;14.20;1.40;;;;;;;;;;5015634;28;20413;-72
2023/01/02 03:20:27;;;;;;;9.20;1.40;;;;;;;;;;5016321;28;20113;-72
2023/01/02 03:22:58;;;;;;;13.45;1.70;;;;;;;;;;5022746;28;20044;-72
2023/01/02 03:25:24;;;;;;;14.02;1.45;;;;;;;;;;5031490;28;20160;-73
2023/01/02 03:27:50;;;;;;;16.60;1.70;;;;;;;;;;5026128;28;20116;-72
2023/01/02 03:30:18;;;;;;;12.45;1.50;;;;;;;;;;5021675;28;20514;-72
2023/01/02 03:33:05;;;;;;;13.48;1.65;;;;;;;;;;5018628;28;20048;-72
2023/01/02 03:35:34;;;;;;;10.13;1.40;;;;;;;;;;5019115;28;20172;-72
2023/01/02 03:38:01;;;;;;;16.08;1.30;;;;;;;;;;5025255;28;20034;-72
2023/01/02 03:40:36;;;;;;;10.05;1.55;;;;;;;;;;5027013;28;20393;-72
2023/01/02 03:43:28;;;;;;;8.85;2.75;;;;;;;;;;5016307;28;20157;-72
2023/01/02 03:46:05;;;;;;;17.10;1.70;;;;;;;;;;5013157;28;20038;-72
2023/01/02 03:48:50;;;;;;;15.73;1.60;;;;;;;;;;5019334;28;20034;-72
2023/01/02 03:51:15;;;;;;;15.30;1.30;;;;;;;;;;5015500;28;20038;-73
2023/01/02 03:53:41;;;;;;;8.55;1.50;;;;;;;;;;5016936;28;20042;-72
2023/01/02 03:56:09;;;;;;;14.23;1.60;;;;;;;;;;5021712;28;20117;-73
2023/01/02 03:58:47;;;;;;;21.30;1.98;;;;;;;;;;5020034;28;20477;-72
2023/01/02 04:01:38;;;;;;;14.48;1.95;;;;;;;;;;5018868;28;20076;-72
2023/01/02 04:04:30;;;;;;;12.27;2.00;;;;;;;;;;5025310;28;20041;-72
2023/01/02 04:06:59;;;;;;;9.18;1.23;;;;;;;;;;5015576;28;20466;-72
2023/01/02 04:09:26;;;;;;;17.00;1.70;;;;;;;;;;5019202;28;20444;-73
2023/01/02 04:11:55;;;;;;;6.63;1.42;;;;;;;;;;5018927;28;20065;-72
2023/01/02 04:14:28;;;;;;;21.75;1.90;;;;;;;;;;5018738;28;20034;-72
2023/01/02 04:16:54;;;;;;;10.27;1.80;;;;;;;;;;5017833;28;20042;-72
2023/01/02 04:19:26;;;;;;;31.80;1.98;;;;;;;;;;5041254;28;20044;-72
2023/01/02 04:21:55;;;;;;;12.77;1.60;;;;;;;;;;5019190;28;20037;-72
2023/01/02 04:24:25;;;;;;;19.75;2.13;;;;;;;;;;5013942;28;20129;-72
2023/01/02 04:26:55;;;;;;;16.08;2.03;;;;;;;;;;5013468;28;20133;-72
2023/01/02 04:29:21;;;;;;;10.70;1.80;;;;;;;;;;5023612;28;20041;-72
2023/01/02 04:31:54;;;;;;;6.88;1.38;;;;;;;;;;5017020;28;20036;-73
2023/01/02 04:34:20;;;;;;;17.10;1.90;;;;;;;;;;5016456;28;20050;-72
2023/01/02 04:36:46;;;;;;;42.58;2.15;;;;;;;;;;5018992;28;20686;-72
2023/01/02 04:39:11;;;;;;;107.20;3.60;;;;;;;;;;5013760;28;20109;-72
2023/01/02 04:41:37;;;;;;;47.53;1.77;;;;;;;;;;5020664;28;20034;-72
2023/01/02 04:44:03;;;;;;;38.13;2.13;;;;;;;;;;5024719;28;20401;-72
2023/01/02 04:46:28;;;;;;;23.30;1.40;;;;;;;;;;5019132;28;20041;-73
2023/01/02 04:48:54;;;;;;;129.52;6.50;;;;;;;;;;5019948;28;20038;-73
2023/01/02 04:51:20;;;;;;;55.70;2.78;;;;;;;;;;5026845;28;20097;-72
2023/01/02 04:53:49;;;;;;;30.30;1.70;;;;;;;;;;5022937;28;20125;-72
2023/01/02 04:56:15;;;;;;;15.38;1.40;;;;;;;;;;5017743;28;20108;-72
2023/01/02 04:58:41;;;;;;;14.52;1.10;;;;;;;;;;5015448;28;20065;-72
2023/01/02 05:01:12;;;;;;;21.30;2.05;;;;;;;;;;5012659;28;20385;-73
2023/01/02 05:03:39;;;;;;;113.55;5.03;;;;;;;;;;5016248;28;20033;-72
2023/01/02 05:06:05;;;;;;;209.60;7.78;;;;;;;;;;5024063;28;20034;-73
2023/01/02 05:08:31;;;;;;;181.77;6.90;;;;;;;;;;5059328;28;20029;-72
2023/01/02 05:10:56;;;;;;;38.20;2.20;;;;;;;;;;5014079;28;20494;-72
2023/01/02 05:13:21;;;;;;;9.10;0.82;;;;;;;;;;5013666;28;20065;-72
2023/01/02 05:15:54;;;;;;;10.40;1.25;;;;;;;;;;5018352;28;20105;-71
2023/01/02 05:18:19;;;;;;;10.68;1.17;;;;;;;;;;5017323;28;20095;-72
2023/01/02 05:20:45;;;;;;;41.65;2.15;;;;;;;;;;5024061;28;20033;-72
2023/01/02 05:25:54;;;;;;;174.32;7.65;;;;;;;;;;5021412;28;20080;-72
2023/01/02 05:28:20;;;;;;;49.05;1.80;;;;;;;;;;5016594;28;20073;-72
2023/01/02 05:30:45;;;;;;;58.53;2.25;;;;;;;;;;5013896;28;20041;-73
2023/01/02 05:33:10;;;;;;;7.97;1.15;;;;;;;;;;5015697;28;20026;-72
2023/01/02 05:35:36;;;;;;;2.95;0.90;;;;;;;;;;5017998;28;20048;-72
2023/01/02 05:38:01;;;;;;;1.92;0.90;;;;;;;;;;5013861;28;20034;-73
2023/01/02 05:40:27;;;;;;;6.35;0.95;;;;;;;;;;5016395;28;20033;-73
2023/01/02 05:42:52;;;;;;;1.33;0.63;;;;;;;;;;5017192;28;20076;-73
2023/01/02 05:45:17;;;;;;;5.85;1.00;;;;;;;;;;5017191;28;20185;-72
2023/01/02 05:47:43;;;;;;;4.43;1.10;;;;;;;;;;5013072;28;20044;-73
2023/01/02 05:50:08;;;;;;;3.17;1.10;;;;;;;;;;5016355;28;20446;-72
2023/01/02 05:52:34;;;;;;;11.70;1.67;;;;;;;;;;5012937;28;20038;-72
2023/01/02 05:54:59;;;;;;;6.45;0.90;;;;;;;;;;5021327;28;20033;-73
2023/01/02 05:57:24;;;;;;;5.05;0.95;;;;;;;;;;5016115;28;20045;-72
2023/01/02 05:59:50;;;;;;;2.22;0.90;;;;;;;;;;5014506;28;21253;-72
2023/01/02 06:02:15;;;;;;;7.10;1.15;;;;;;;;;;5013530;28;20063;-72
2023/01/02 06:04:40;;;;;;;5.50;0.70;;;;;;;;;;5026450;28;20037;-73
2023/01/02 06:07:06;;;;;;;5.25;0.93;;;;;;;;;;5014404;28;20385;-72
2023/01/02 06:09:31;;;;;;;2.97;0.70;;;;;;;;;;5018772;28;20028;-72
2023/01/02 06:11:57;;;;;;;3.55;0.80;;;;;;;;;;5016315;28;20048;-72
2023/01/02 06:14:22;;;;;;;2.05;0.75;;;;;;;;;;5020746;28;20159;-72
2023/01/02 06:16:48;;;;;;;1.92;0.70;;;;;;;;;;5017876;28;20482;-72
2023/01/02 06:19:13;;;;;;;3.20;1.02;;;;;;;;;;5021039;28;20447;-72
2023/01/02 06:21:39;;;;;;;1.73;0.88;;;;;;;;;;5023501;28;20069;-72
2023/01/02 06:24:04;;;;;;;1.75;0.80;;;;;;;;;;5030991;28;20389;-72
2023/01/02 06:26:30;;;;;;;2.35;1.08;;;;;;;;;;5019181;28;20076;-72
2023/01/02 06:28:56;;;;;;;0.90;0.60;;;;;;;;;;5015291;28;20096;-72
2023/01/02 06:31:26;;;;;;;2.30;0.80;;;;;;;;;;5012718;28;20100;-72
2023/01/02 06:33:58;;;;;;;7.95;1.20;;;;;;;;;;5016383;28;20508;-72
2023/01/02 06:36:24;;;;;;;4.15;1.00;;;;;;;;;;5018787;28;20041;-72
2023/01/02 06:38:50;;;;;;;2.88;1.13;;;;;;;;;;5022315;28;20052;-72
2023/01/02 06:41:16;;;;;;;4.07;1.08;;;;;;;;;;5016797;28;20478;-72
2023/01/02 06:43:46;;;;;;;24.30;1.85;;;;;;;;;;5023759;28;20118;-72
2023/01/02 06:46:12;;;;;;;30.65;1.83;;;;;;;;;;5019417;28;20109;-72
2023/01/02 06:48:38;;;;;;;32.78;1.60;;;;;;;;;;5014983;28;20502;-73
2023/01/02 06:51:04;;;;;;;119.10;4.60;;;;;;;;;;5020446;28;20069;-73
2023/01/02 06:53:33;;;;;;;51.15;2.15;;;;;;;;;;5018199;28;20034;-72
2023/01/02 06:55:58;;;;;;;8.13;0.88;;;;;;;;;;5020538;28;20050;-72
2023/01/02 06:58:25;;;;;;;4.70;1.10;;;;;;;;;;5015603;28;20470;-72
2023/01/02 07:00:51;;;;;;;38.55;2.78;;;;;;;;;;5023712;28;20037;-72
2023/01/02 07:03:17;;;;;;;9.55;1.27;;;;;;;;;;5015272;28;20402;-72
2023/01/02 07:05:42;;;;;;;28.73;1.85;;;;;;;;;;5045713;28;20056;-72
2023/01/02 07:08:08;;;;;;;37.58;2.22;;;;;;;;;;5018412;28;20033;-72
2023/01/02 07:10:34;;;;;;;18.67;1.30;;;;;;;;;;5028876;28;20432;-72
2023/01/02 07:12:59;;;;;;;2.03;0.98;;;;;;;;;;5032181;28;20042;-72
2023/01/02 07:15:25;;;;;;;6.00;1.48;;;;;;;;;;5027014;28;20389;-72
2023/01/02 07:17:50;;;;;;;2.45;0.93;;;;;;;;;;5024055;28;20065;-72
2023/01/02 07:20:16;;;;;;;1.83;0.98;;;;;;;;;;5018540;28;20053;-74
2023/01/02 07:22:41;;;;;;;1.73;0.93;;;;;;;;;;5016246;28;20053;-73
2023/01/02 07:25:07;;;;;;;11.75;1.27;;;;;;;;;;5021913;28;20041;-72
2023/01/02 07:27:33;;;;;;;63.55;2.47;;;;;;;;;;5016144;28;20458;-72
2023/01/02 07:29:58;;;;;;;29.60;1.92;;;;;;;;;;5024387;28;20029;-73
2023/01/02 07:32:23;;;;;;;20.52;2.97;;;;;;;;;;5015945;28;20042;-74
2023/01/02 07:34:50;;;;;;;19.17;3.25;;;;;;;;;;5016731;28;20072;-74
2023/01/02 07:37:15;;;;;;;38.42;4.15;;;;;;;;;;5018236;28;20478;-75
2023/01/02 07:39:41;;;;;;;8.82;2.20;;;;;;;;;;5029158;28;20037;-74
2023/01/02 07:42:06;;;;;;;11.52;2.40;;;;;;;;;;5016125;28;20091;-74
2023/01/02 07:44:32;;;;;;;4.22;1.05;;;;;;;;;;5028318;28;20108;-73
2023/01/02 07:46:57;;;;;;;2.08;1.10;;;;;;;;;;5016522;28;20390;-73
2023/01/02 07:49:22;;;;;;;1.60;0.90;;;;;;;;;;5027913;28;20095;-73
2023/01/02 07:51:48;;;;;;;3.63;0.80;;;;;;;;;;5021812;28;20504;-73
2023/01/02 07:54:15;;;;;;;2.90;1.20;;;;;;;;;;5026931;28;20116;-73
2023/01/02 07:56:40;;;;;;;1.98;0.75;;;;;;;;;;5018743;28;20038;-73
2023/01/02 07:59:05;;;;;;;2.58;0.85;;;;;;;;;;5025007;28;20033;-73
2023/01/02 08:01:31;;;;;;;3.20;0.70;;;;;;;;;;5015813;28;20034;-73
2023/01/02 08:03:56;;;;;;;7.95;1.10;;;;;;;;;;5023584;28;20045;-72
2023/01/02 08:06:21;;;;;;;9.88;1.08;;;;;;;;;;5017429;28;20037;-73
2023/01/02 08:08:47;;;;;;;11.35;1.10;;;;;;;;;;5015111;28;20437;-73
2023/01/02 08:11:15;;;;;;;3.90;0.90;;;;;;;;;;5032976;28;20045;-72
2023/01/02 08:13:41;;;;;;;7.03;1.15;;;;;;;;;;5013559;28;20052;-72
2023/01/02 08:16:12;;;;;;;8.13;2.03;;;;;;;;;;5020131;28;20037;-73
2023/01/02 08:18:37;;;;;;;7.30;2.10;;;;;;;;;;5015651;28;20132;-73
2023/01/02 08:21:03;;;;;;;5.13;1.73;;;;;;;;;;5020333;28;20029;-73
2023/01/02 08:23:29;;;;;;;5.22;2.25;;;;;;;;;;5013719;28;20128;-73
2023/01/02 08:25:59;;;;;;;10.30;1.90;;;;;;;;;;5024128;28;20172;-72
2023/01/02 08:28:25;;;;;;;8.98;1.30;;;;;;;;;;5017188;28;20049;-73
2023/01/02 08:30:51;;;;;;;1.67;0.80;;;;;;;;;;5012981;28;20042;-73
2023/01/02 08:33:16;;;;;;;2.22;1.02;;;;;;;;;;5024227;28;20049;-73
2023/01/02 08:35:41;;;;;;;3.05;1.00;;;;;;;;;;5026889;28;20108;-73
2023/01/02 08:38:07;;;;;;;2.53;1.10;;;;;;;;;;5015490;28;20083;-73
2023/01/02 08:40:32;;;;;;;54.00;2.60;;;;;;;;;;5021066;28;20113;-73
2023/01/02 08:42:58;;;;;;;4.40;1.08;;;;;;;;;;5014889;28;20034;-72
2023/01/02 08:45:23;;;;;;;5.50;1.83;;;;;;;;;;5019176;28;20050;-72
2023/01/02 08:47:48;;;;;;;11.18;2.90;;;;;;;;;;5014145;28;20409;-73
2023/01/02 08:50:14;;;;;;;19.58;8.35;;;;;;;;;;5018292;28;20405;-73
2023/01/02 08:52:39;;;;;;;13.57;4.53;;;;;;;;;;5014032;28;20042;-72
2023/01/02 08:55:05;;;;;;;8.35;3.83;;;;;;;;;;5017078;28;20068;-72
2023/01/02 08:57:31;;;;;;;9.27;3.33;;;;;;;;;;5018400;28;20536;-73
2023/01/02 08:59:56;;;;;;;7.18;1.50;;;;;;;;;;5025533;28;20038;-72
2023/01/02 09:02:22;;;;;;;30.98;2.33;;;;;;;;;;5018904;28;20042;-73
2023/01/02 09:04:47;;;;;;;7.28;1.45;;;;;;;;;;5022130;28;20065;-72
2023/01/02 09:07:13;;;;;;;5.82;0.75;;;;;;;;;;5015972;28;20113;-73
2023/01/02 09:09:38;;;;;;;45.22;2.38;;;;;;;;;;5016927;28;20116;-72
2023/01/02 09:12:04;;;;;;;113.38;4.50;;;;;;;;;;5024110;28;20381;-73
2023/01/02 09:14:29;;;;;;;14.23;1.75;;;;;;;;;;5017074;28;20077;-73
2023/01/02 09:16:56;;;;;;;15.63;2.15;;;;;;;;;;5016845;28;20431;-72
2023/01/02 09:19:25;;;;;;;13.05;2.30;;;;;;;;;;5017114;28;20386;-72
2023/01/02 09:21:51;;;;;;;21.50;7.63;;;;;;;;;;5017550;28;20504;-73
2023/01/02 09:24:16;;;;;;;16.52;6.22;;;;;;;;;;5033638;28;20041;-73
2023/01/02 09:26:42;;;;;;;15.07;6.50;;;;;;;;;;5016237;28;20044;-73
2023/01/02 09:29:08;;;;;;;19.92;5.68;;;;;;;;;;5015890;28;20389;-74
2023/01/02 09:31:33;;;;;;;13.40;4.80;;;;;;;;;;5014670;28;20034;-73
2023/01/02 09:33:59;;;;;;;17.35;4.38;;;;;;;;;;5022436;28;20029;-73
2023/01/02 09:36:25;;;;;;;10.73;3.00;;;;;;;;;;5027675;28;20116;-73
2023/01/02 09:38:54;;;;;;;7.78;2.85;;;;;;;;;;5020274;28;20038;-73
2023/01/02 09:41:25;;;;;;;11.93;3.25;;;;;;;;;;5016055;28;20038;-73
2023/01/02 09:44:18;;;;;;;8.43;2.85;;;;;;;;;;5014735;28;20069;-73
2023/01/02 09:46:56;;;;;;;7.00;3.28;;;;;;;;;;5008918;28;20038;-73
2023/01/02 09:49:32;;;;;;;9.48;3.00;;;;;;;;;;4996085;28;20049;-73
2023/01/02 09:51:57;;;;;;;4.70;1.77;;;;;;;;;;5015494;28;20041;-73
2023/01/02 09:54:26;;;;;;;11.60;1.52;;;;;;;;;;5029728;28;20045;-73
2023/01/02 09:57:21;;;;;;;13.35;2.60;;;;;;;;;;5023564;28;20045;-73
2023/01/02 09:59:46;;;;;;;18.33;3.95;;;;;;;;;;5021919;28;20057;-73
2023/01/02 10:02:40;;;;;;;11.68;3.95;;;;;;;;;;5027915;28;20041;-72
2023/01/02 10:05:05;;;;;;;28.60;5.57;;;;;;;;;;5015908;28;20046;-73
2023/01/02 10:07:33;;;;;;;35.17;6.07;;;;;;;;;;5020469;28;20088;-73
2023/01/02 10:10:17;;;;;;;50.13;7.78;;;;;;;;;;5013262;28;20352;-73
2023/01/02 10:12:59;;;;;;;25.65;8.32;;;;;;;;;;5010433;28;20072;-73
2023/01/02 10:15:29;;;;;;;26.65;7.07;;;;;;;;;;5012668;28;20087;-73
2023/01/02 10:17:58;;;;;;;16.45;6.72;;;;;;;;;;5005947;28;20088;-74
2023/01/02 10:20:35;;;;;;;18.88;7.28;;;;;;;;;;5003895;28;20508;-73
2023/01/02 10:23:05;;;;;;;17.83;7.63;;;;;;;;;;5010627;28;20034;-74
2023/01/02 10:25:50;;;;;;;24.35;12.85;;;;;;;;;;5019840;28;20060;-73
2023/01/02 10:28:43;;;;;;;23.23;9.90;;;;;;;;;;5019040;28;20044;-73
2023/01/02 10:31:20;;;;;;;33.78;13.85;;;;;;;;;;5011409;28;20517;-73
2023/01/02 10:33:59;;;;;;;22.13;9.48;;;;;;;;;;5040703;28;20091;-73
2023/01/02 10:36:34;;;;;;;12.98;5.57;;;;;;;;;;5008667;28;20062;-72
2023/01/02 10:39:01;;;;;;;7.78;3.30;;;;;;;;;;5009088;28;20033;-75
2023/01/02 10:41:28;;;;;;;15.45;2.75;;;;;;;;;;5009647;28;20046;-73
2023/01/02 10:43:58;;;;;;;9.57;3.13;;;;;;;;;;5013511;28;20061;-73
2023/01/02 10:46:28;;;;;;;6.18;3.20;;;;;;;;;;5010023;28;20129;-72
2023/01/02 10:48:53;;;;;;;5.95;2.60;;;;;;;;;;5008609;28;20069;-73
2023/01/02 10:51:19;;;;;;;15.27;4.78;;;;;;;;;;5010118;28;20075;-73
2023/01/02 10:53:58;;;;;;;10.05;4.45;;;;;;;;;;5037587;28;20066;-73
2023/01/02 10:56:25;;;;;;;20.35;8.10;;;;;;;;;;5010578;28;20041;-73
2023/01/02 10:58:52;;;;;;;12.77;6.30;;;;;;;;;;5003958;28;20545;-76
2023/01/02 11:01:20;;;;;;;10.20;5.35;;;;;;;;;;5020490;28;20033;-73
2023/01/02 11:03:52;;;;;;;15.05;6.40;;;;;;;;;;4997369;28;20104;-73
2023/01/02 11:06:21;;;;;;;13.20;5.45;;;;;;;;;;5013576;28;20429;-73
2023/01/02 11:09:12;;;;;;;17.27;7.68;;;;;;;;;;5011731;28;20498;-73
2023/01/02 11:11:47;;;;;;;21.27;11.63;;;;;;;;;;5029797;28;20033;-73
2023/01/02 11:14:13;;;;;;;15.15;8.82;;;;;;;;;;5011514;28;20493;-73
2023/01/02 11:16:39;;;;;;;15.05;8.45;;;;;;;;;;5018690;28;20053;-73
2023/01/02 11:19:06;;;;;;;19.27;8.85;;;;;;;;;;5014225;28;20038;-72
2023/01/02 11:21:34;;;;;;;14.57;7.20;;;;;;;;;;5023921;28;20025;-72
2023/01/02 11:24:05;;;;;;;13.45;5.75;;;;;;;;;;5025431;28;20482;-72
2023/01/02 11:26:31;;;;;;;14.13;6.32;;;;;;;;;;5017770;28;20045;-73
2023/01/02 11:29:06;;;;;;;13.45;6.28;;;;;;;;;;5016615;28;20448;-73
2023/01/02 11:31:31;;;;;;;11.80;5.70;;;;;;;;;;5018172;28;20581;-73
2023/01/02 11:34:16;;;;;;;9.60;5.13;;;;;;;;;;5016546;28;20112;-73
2023/01/02 11:36:43;;;;;;;8.70;4.57;;;;;;;;;;5021500;28;20392;-73
2023/01/02 11:39:22;;;;;;;7.50;4.40;;;;;;;;;;5001561;28;20038;-73
2023/01/02 11:44:37;;;;;;;6.68;4.38;;;;;;;;;;5023246;28;20133;-73
2023/01/02 11:47:04;;;;;;;10.85;4.90;;;;;;;;;;5016637;28;20148;-73
2023/01/02 11:49:49;;;;;;;15.45;5.50;;;;;;;;;;5013338;28;20056;-73
2023/01/02 11:52:18;;;;;;;12.38;6.00;;;;;;;;;;5013790;28;20050;-73
2023/01/02 11:55:09;;;;;;;9.60;5.30;;;;;;;;;;5014390;28;20033;-73
2023/01/02 11:57:41;;;;;;;5.60;3.20;;;;;;;;;;5001537;28;20041;-73
2023/01/02 12:00:16;;;;;;;7.25;2.63;;;;;;;;;;5016245;28;20188;-72
2023/01/02 12:02:43;;;;;;;5.72;1.77;;;;;;;;;;5013437;28;20034;-72
2023/01/02 12:05:11;;;;;;;7.70;3.22;;;;;;;;;;5016712;28;20084;-75
2023/01/02 12:07:43;;;;;;;6.90;4.03;;;;;;;;;;5022049;28;20517;-72
2023/01/02 12:10:27;;;;;;;3.55;1.60;;;;;;;;;;5019890;28;20041;-73
2023/01/02 12:13:14;;;;;;;5.65;1.48;;;;;;;;;;5019384;28;20120;-73
2023/01/02 12:15:57;;;;;;;6.40;3.55;;;;;;;;;;5022853;28;20045;-73
2023/01/02 12:18:31;;;;;;;3.03;1.20;;;;;;;;;;5013987;28;20069;-72
2023/01/02 12:21:03;;;;;;;3.22;1.30;;;;;;;;;;5020763;28;20037;-73
2023/01/02 12:23:33;;;;;;;2.88;1.25;;;;;;;;;;5030190;28;20486;-73
2023/01/02 12:26:09;;;;;;;4.53;1.98;;;;;;;;;;5009413;28;20041;-74
2023/01/02 12:28:34;;;;;;;3.85;1.20;;;;;;;;;;4999814;28;20045;-73
2023/01/02 12:31:00;;;;;;;3.65;1.40;;;;;;;;;;5007899;28;20034;-74
2023/01/02 12:33:35;;;;;;;3.25;1.60;;;;;;;;;;5018993;28;20078;-73
2023/01/02 12:36:42;;;;;;;2.70;1.30;;;;;;;;;;5014366;28;20462;-75
2023/01/02 12:39:15;;;;;;;3.17;1.27;;;;;;;;;;5003094;28;20050;-73
2023/01/02 12:42:00;;;;;;;2.13;1.23;;;;;;;;;;5017390;28;20048;-74
2023/01/02 12:44:57;;;;;;;5.05;1.33;;;;;;;;;;5016240;28;20111;-73
2023/01/02 12:47:41;;;;;;;3.58;1.13;;;;;;;;;;5011587;28;20095;-74
2023/01/02 12:50:06;;;;;;;4.18;1.20;;;;;;;;;;5017944;28;20409;-74
2023/01/02 12:52:51;;;;;;;2.17;1.35;;;;;;;;;;5013955;28;20045;-73
2023/01/02 12:55:25;;;;;;;5.68;1.50;;;;;;;;;;5014618;28;20049;-74
2023/01/02 12:58:00;;;;;;;5.00;1.33;;;;;;;;;;5019125;28;20037;-74
2023/01/02 13:00:50;;;;;;;4.03;1.40;;;;;;;;;;5032581;28;20038;-75
2023/01/02 13:03:33;;;;;;;2.40;1.20;;;;;;;;;;5019363;28;20109;-74
2023/01/02 13:06:07;;;;;;;2.75;1.20;;;;;;;;;;5018002;28;20060;-74
2023/01/02 13:08:59;;;;;;;1.83;1.10;;;;;;;;;;5013468;28;20401;-74
2023/01/02 13:11:48;;;;;;;6.60;1.30;;;;;;;;;;5017477;28;20096;-74
2023/01/02 13:14:17;;;;;;;2.50;0.82;;;;;;;;;;5008041;28;20060;-74
2023/01/02 13:17:07;;;;;;;3.25;1.42;;;;;;;;;;5022231;28;20041;-74
2023/01/02 13:19:41;;;;;;;3.53;1.02;;;;;;;;;;4992499;28;20057;-73
2023/01/02 13:22:25;;;;;;;;;;;;;;;;;;5020166;28;20072;-73
2023/01/02 13:24:51;;;;;;;1.93;0.90;;;;;;;;;;5018701;28;19917;-74
2023/01/02 13:27:16;;;;;;;7.97;1.17;;;;;;;;;;5012682;28;20287;-74
2023/01/02 13:29:44;;;;;;;3.33;1.27;;;;;;;;;;5022989;28;20037;-74
2023/01/02 13:32:11;;;;;;;10.20;1.60;;;;;;;;;;5016777;28;20443;-74
2023/01/02 13:34:42;;;;;;;1.88;1.00;;;;;;;;;;5018307;28;20037;-73
2023/01/02 13:37:12;;;;;;;4.10;1.27;;;;;;;;;;5018899;28;20489;-73
2023/01/02 13:39:38;;;;;;;4.72;1.42;;;;;;;;;;5012520;28;20541;-73
2023/01/02 13:44:56;;;;;;;6.82;1.50;;;;;;;;;;5012210;28;20113;-73
2023/01/02 13:47:29;;;;;;;4.28;1.30;;;;;;;;;;5019816;28;20041;-73
2023/01/02 13:49:58;;;;;;;2.55;1.20;;;;;;;;;;5022612;28;20044;-73
2023/01/02 13:52:24;;;;;;;3.70;1.67;;;;;;;;;;5020935;28;20121;-73
2023/01/02 13:55:19;;;;;;;2.80;1.15;;;;;;;;;;5020174;28;20104;-73
2023/01/02 13:57:45;;;;;;;2.55;1.38;;;;;;;;;;5015925;28;20041;-73
2023/01/02 14:00:13;;;;;;;2.85;1.40;;;;;;;;;;5029893;28;20109;-73
2023/01/02 14:02:38;;;;;;;3.85;1.48;;;;;;;;;;5030619;28;20064;-73
2023/01/02 14:05:41;;;;;;;4.28;1.33;;;;;;;;;;5029344;28;20474;-73
2023/01/02 14:09:01;;;;;;;3.33;1.40;;;;;;;;;;5023893;28;20034;-73
2023/01/02 14:11:30;;;;;;;4.32;1.15;;;;;;;;;;4999756;28;20043;-73
2023/01/02 14:13:56;;;;;;;4.45;1.30;;;;;;;;;;5019543;28;20143;-73
2023/01/02 14:16:22;;;;;;;3.97;1.52;;;;;;;;;;5020237;28;20026;-74
2023/01/02 14:19:14;;;;;;;6.03;1.48;;;;;;;;;;5018776;28;20188;-73
2023/01/02 14:21:44;;;;;;;5.30;1.30;;;;;;;;;;5001694;28;20107;-73
2023/01/02 14:24:12;;;;;;;2.92;1.42;;;;;;;;;;5017552;28;20049;-73
2023/01/02 14:26:38;;;;;;;3.85;1.60;;;;;;;;;;5020804;28;20033;-73
2023/01/02 14:29:10;;;;;;;2.35;1.13;;;;;;;;;;5026088;28;20156;-73
2023/01/02 14:31:36;;;;;;;3.53;1.67;;;;;;;;;;5021435;28;20053;-74
2023/01/02 14:34:02;;;;;;;3.45;1.65;;;;;;;;;;5026404;28;20049;-73
2023/01/02 14:36:39;;;;;;;2.25;1.23;;;;;;;;;;5019400;28;20464;-73
2023/01/02 14:39:05;;;;;;;4.22;1.70;;;;;;;;;;5024295;28;20425;-73
2023/01/02 14:44:43;;;;;;;2.28;1.20;;;;;;;;;;5006805;28;20568;-73
2023/01/02 14:47:11;;;;;;;2.80;1.20;;;;;;;;;;5018631;28;20068;-73
2023/01/02 14:49:37;;;;;;;3.90;1.52;;;;;;;;;;5030014;28;20045;-73
2023/01/02 14:52:10;;;;;;;3.60;1.55;;;;;;;;;;5020657;28;20500;-73
2023/01/02 14:54:45;;;;;;;8.25;1.73;;;;;;;;;;5028575;28;20049;-73
2023/01/02 14:57:32;;;;;;;3.08;1.40;;;;;;;;;;5034161;28;20045;-73
2023/01/02 15:00:10;;;;;;;6.40;1.67;;;;;;;;;;5021952;28;20474;-73
2023/01/02 15:02:40;;;;;;;5.38;2.58;;;;;;;;;;5017836;28;20046;-73
2023/01/02 15:05:14;;;;;;;5.20;2.00;;;;;;;;;;5025782;28;20025;-73